Time;durP1;ratioP1;P1;durP2;ratioP2;P2;SDS_P1;SDS_P2;PMS_P1;PMS_P2;Temp;Humidity;BMP_temperature;BMP_pressure;BME280_temperature;BME280_humidity;BME280_pressure;Samples;Min_cycle;Max_cycle;Signal;HPM_P1;HPM_P2
2021/11/23 00:00:18;;;;;;;10.90;8.00;;;0.90;99.90;;;;;;5095126;28;20204;-80
2021/11/23 00:02:45;;;;;;;10.82;7.82;;;0.90;99.90;;;;;;5095063;28;20232;-81
2021/11/23 00:05:13;;;;;;;12.80;8.73;;;0.90;99.90;;;;;;5095770;28;20196;-80
2021/11/23 00:07:41;;;;;;;10.80;7.10;;;0.80;99.90;;;;;;5094776;28;20212;-81
2021/11/23 00:10:10;;;;;;;16.58;8.82;;;0.90;99.90;;;;;;5094715;28;20204;-80
2021/11/23 00:12:37;;;;;;;14.27;8.45;;;0.80;99.90;;;;;;5094584;28;20242;-81
2021/11/23 00:15:08;;;;;;;13.57;8.13;;;0.80;99.90;;;;;;5095574;28;20200;-81
2021/11/23 00:17:34;;;;;;;11.60;7.93;;;0.80;99.90;;;;;;5094109;28;20223;-78
2021/11/23 00:20:03;;;;;;;13.93;8.55;;;0.90;99.90;;;;;;5094821;28;20688;-79
2021/11/23 00:22:31;;;;;;;12.10;7.07;;;0.80;99.90;;;;;;5093314;28;20192;-79
2021/11/23 00:25:00;;;;;;;11.40;7.13;;;0.80;99.90;;;;;;5079167;28;20719;-80
2021/11/23 00:27:27;;;;;;;11.55;7.50;;;0.90;99.90;;;;;;5095068;28;20216;-79
2021/11/23 00:29:53;;;;;;;12.82;8.23;;;0.80;99.90;;;;;;5095370;28;20209;-80
2021/11/23 00:32:21;;;;;;;14.77;8.05;;;0.80;99.90;;;;;;5094869;28;20203;-81
2021/11/23 00:34:48;;;;;;;13.02;8.27;;;0.80;99.90;;;;;;5100926;28;20206;-80
2021/11/23 00:37:20;;;;;;;10.98;7.65;;;0.80;99.90;;;;;;5103524;28;20298;-79
2021/11/23 00:39:49;;;;;;;11.88;7.47;;;0.80;99.90;;;;;;5099336;28;20198;-80
2021/11/23 00:42:17;;;;;;;11.45;8.27;;;0.80;99.90;;;;;;5094323;28;20195;-80
2021/11/23 00:44:44;;;;;;;10.48;7.47;;;0.80;99.90;;;;;;5092467;28;20198;-80
2021/11/23 00:47:11;;;;;;;10.80;7.07;;;0.80;99.90;;;;;;5095343;28;20212;-79
2021/11/23 00:49:37;;;;;;;15.50;8.13;;;0.80;99.90;;;;;;5095165;28;20230;-78
2021/11/23 00:52:05;;;;;;;13.30;7.95;;;0.90;99.90;;;;;;5093961;28;20203;-80
2021/11/23 00:54:31;;;;;;;14.35;7.07;;;0.80;99.90;;;;;;5094709;28;20215;-80
2021/11/23 00:56:58;;;;;;;12.50;7.97;;;0.80;99.90;;;;;;5094162;28;20278;-80
2021/11/23 00:59:26;;;;;;;15.90;8.20;;;0.80;99.90;;;;;;5094680;28;20229;-79
2021/11/23 01:01:53;;;;;;;12.73;8.02;;;0.80;99.90;;;;;;5093783;28;20210;-79
2021/11/23 01:04:20;;;;;;;11.35;7.82;;;0.80;99.90;;;;;;5094971;28;20200;-79
2021/11/23 01:06:49;;;;;;;12.95;8.23;;;0.80;99.90;;;;;;5095050;28;20567;-79
2021/11/23 01:09:16;;;;;;;12.13;7.40;;;0.80;99.90;;;;;;5094965;28;20189;-80
2021/11/23 01:11:43;;;;;;;11.38;7.10;;;0.80;99.90;;;;;;5095390;28;20695;-79
2021/11/23 01:14:10;;;;;;;12.02;6.97;;;0.80;99.90;;;;;;5095189;28;20225;-78
2021/11/23 01:16:38;;;;;;;11.35;8.48;;;0.80;99.90;;;;;;5075066;22;20259;-81
2021/11/23 01:19:07;;;;;;;10.85;7.25;;;0.80;99.90;;;;;;5036209;28;20222;-81
2021/11/23 01:21:35;;;;;;;13.80;7.77;;;0.70;99.90;;;;;;5034916;28;20719;-80
2021/11/23 01:24:02;;;;;;;11.20;6.88;;;0.80;99.90;;;;;;5037548;28;20523;-81
2021/11/23 01:26:28;;;;;;;13.13;8.35;;;0.80;99.90;;;;;;5037375;28;20225;-82
2021/11/23 01:28:55;;;;;;;13.05;8.45;;;0.80;99.90;;;;;;5036995;28;20465;-81
2021/11/23 01:31:22;;;;;;;11.57;7.53;;;0.70;99.90;;;;;;5036042;28;20199;-80
2021/11/23 01:33:50;;;;;;;12.88;8.00;;;0.70;99.90;;;;;;5036392;28;20212;-79
2021/11/23 01:36:17;;;;;;;13.15;7.70;;;0.70;99.90;;;;;;5036563;28;20212;-81
2021/11/23 01:38:44;;;;;;;12.85;7.90;;;0.70;99.90;;;;;;5036244;28;20739;-80
2021/11/23 01:41:11;;;;;;;12.77;8.05;;;0.70;99.90;;;;;;5036219;28;20230;-80
2021/11/23 01:43:38;;;;;;;14.57;8.23;;;0.70;99.90;;;;;;5034271;28;20629;-80
2021/11/23 01:46:06;;;;;;;12.27;8.10;;;0.70;99.90;;;;;;5036596;28;20256;-81
2021/11/23 01:48:34;;;;;;;14.48;9.32;;;0.70;99.90;;;;;;5036277;28;20198;-80
2021/11/23 01:51:05;;;;;;;11.75;7.57;;;0.70;99.90;;;;;;5035219;28;20288;-81
2021/11/23 01:53:32;;;;;;;12.93;7.45;;;0.70;99.90;;;;;;5036196;28;20674;-81
2021/11/23 01:55:59;;;;;;;13.60;8.95;;;0.70;99.90;;;;;;5035876;28;20257;-80
2021/11/23 01:58:26;;;;;;;11.95;7.95;;;0.70;99.90;;;;;;5035689;28;20228;-82
2021/11/23 02:00:53;;;;;;;13.80;9.57;;;0.70;99.90;;;;;;5035393;28;20216;-80
2021/11/23 02:03:20;;;;;;;13.45;8.55;;;0.70;99.90;;;;;;5035571;28;20210;-80
2021/11/23 02:05:47;;;;;;;12.88;9.20;;;0.70;99.90;;;;;;5036317;28;20225;-80
2021/11/23 02:08:16;;;;;;;12.40;7.97;;;0.70;99.90;;;;;;5036060;28;20194;-79
2021/11/23 02:10:43;;;;;;;12.70;8.67;;;0.70;99.90;;;;;;5035795;28;20212;-80
2021/11/23 02:13:10;;;;;;;13.50;8.43;;;0.60;99.90;;;;;;5036508;28;20539;-81
2021/11/23 02:15:38;;;;;;;13.68;8.23;;;0.60;99.90;;;;;;5035144;28;20720;-79
2021/11/23 02:18:16;;;;;;;14.70;9.57;;;0.60;99.90;;;;;;5035916;28;20202;-82
2021/11/23 02:20:45;;;;;;;12.25;8.63;;;0.60;99.90;;;;;;5035101;28;20214;-80
2021/11/23 02:23:12;;;;;;;15.07;7.80;;;0.60;99.90;;;;;;5036286;28;20208;-81
2021/11/23 02:25:39;;;;;;;12.98;7.55;;;0.60;99.90;;;;;;5036601;28;20225;-80
2021/11/23 02:28:07;;;;;;;14.63;9.60;;;0.60;99.90;;;;;;5036663;28;20221;-82
2021/11/23 02:30:38;;;;;;;16.10;9.60;;;0.70;99.90;;;;;;5049192;28;20207;-80
2021/11/23 02:33:05;;;;;;;11.95;7.57;;;0.60;99.90;;;;;;5037090;28;20201;-82
2021/11/23 02:35:33;;;;;;;13.82;8.55;;;0.70;99.90;;;;;;5035556;28;20253;-81
2021/11/23 02:38:01;;;;;;;12.60;8.57;;;0.80;99.90;;;;;;5038096;28;20210;-80
2021/11/23 02:40:28;;;;;;;14.27;9.20;;;0.80;99.90;;;;;;5035200;28;20205;-82
2021/11/23 02:42:56;;;;;;;13.88;8.40;;;1.00;99.90;;;;;;5035031;28;20201;-81
2021/11/23 02:45:26;;;;;;;14.80;8.88;;;1.00;99.90;;;;;;5034972;28;20677;-80
2021/11/23 02:47:54;;;;;;;14.50;8.68;;;1.10;99.90;;;;;;5035423;28;20700;-81
2021/11/23 02:50:22;;;;;;;16.05;8.90;;;1.20;99.90;;;;;;5034751;28;20213;-78
2021/11/23 02:52:50;;;;;;;13.85;8.90;;;1.30;99.90;;;;;;5035028;28;20209;-79
2021/11/23 02:55:21;;;;;;;13.43;8.80;;;1.40;99.90;;;;;;5035480;28;20209;-79
2021/11/23 02:57:48;;;;;;;14.73;9.90;;;1.60;99.90;;;;;;5035099;28;20213;-79
2021/11/23 03:00:18;;;;;;;16.10;9.63;;;1.70;99.90;;;;;;5034416;28;20317;-79
2021/11/23 03:02:45;;;;;;;12.82;8.80;;;1.80;99.90;;;;;;5035307;28;20662;-80
2021/11/23 03:05:13;;;;;;;15.52;9.93;;;1.90;99.90;;;;;;5035373;28;20212;-78
2021/11/23 03:07:40;;;;;;;12.18;8.70;;;1.90;99.90;;;;;;5037592;28;20237;-80
2021/11/23 03:10:09;;;;;;;12.77;10.48;;;2.10;99.90;;;;;;5038259;28;20765;-79
2021/11/23 03:12:39;;;;;;;13.30;9.27;;;2.20;99.90;;;;;;5038504;28;20217;-79
2021/11/23 03:15:08;;;;;;;11.77;8.53;;;2.30;99.90;;;;;;5039179;28;20451;-79
2021/11/23 03:17:35;;;;;;;13.27;9.17;;;2.40;99.90;;;;;;5057293;28;20475;-79
2021/11/23 03:20:04;;;;;;;16.20;9.60;;;2.40;99.90;;;;;;5058507;28;20487;-78
2021/11/23 03:22:31;;;;;;;16.27;9.25;;;2.50;99.90;;;;;;5058002;28;20452;-79
2021/11/23 03:24:58;;;;;;;14.63;9.67;;;2.60;99.90;;;;;;5056091;28;20197;-80
2021/11/23 03:27:25;;;;;;;12.40;9.27;;;2.60;99.90;;;;;;5038837;28;20544;-79
2021/11/23 03:29:53;;;;;;;18.33;12.20;;;2.70;99.90;;;;;;5038726;28;20447;-79
2021/11/23 03:32:20;;;;;;;15.80;10.20;;;2.70;99.90;;;;;;5037892;28;20952;-81
2021/11/23 03:34:49;;;;;;;11.37;9.13;;;2.80;99.90;;;;;;5038679;28;20484;-80
2021/11/23 03:37:20;;;;;;;12.77;8.90;;;2.90;99.90;;;;;;5038743;28;20551;-79
2021/11/23 03:39:48;;;;;;;15.53;10.40;;;2.90;99.90;;;;;;5047392;28;20563;-79
2021/11/23 03:42:15;;;;;;;13.63;9.70;;;3.00;99.90;;;;;;5058554;28;20448;-79
2021/11/23 03:44:44;;;;;;;15.20;9.17;;;3.00;99.90;;;;;;5057971;28;20444;-80
2021/11/23 03:47:15;;;;;;;13.00;9.53;;;3.10;99.90;;;;;;5059036;28;20831;-79
2021/11/23 03:49:45;;;;;;;16.70;10.57;;;3.10;99.90;;;;;;5058917;28;20481;-80
2021/11/23 03:52:13;;;;;;;16.60;10.90;;;3.10;99.90;;;;;;5058278;28;20574;-80
2021/11/23 03:54:39;;;;;;;15.87;10.37;;;3.20;99.90;;;;;;5041517;28;20456;-80
2021/11/23 03:57:07;;;;;;;16.40;10.27;;;3.30;99.90;;;;;;5038400;28;20480;-80
2021/11/23 03:59:34;;;;;;;14.00;10.83;;;3.30;99.90;;;;;;5038556;28;20473;-80
2021/11/23 04:02:01;;;;;;;13.13;9.60;;;3.40;99.90;;;;;;5037791;28;20441;-80
2021/11/23 04:04:29;;;;;;;16.70;11.70;;;3.40;99.90;;;;;;5038625;28;20946;-79
2021/11/23 04:06:57;;;;;;;17.00;10.87;;;3.50;99.90;;;;;;5040987;28;20477;-81
2021/11/23 04:09:24;;;;;;;17.23;11.70;;;3.50;99.90;;;;;;5058368;28;20451;-80
2021/11/23 04:11:51;;;;;;;14.00;10.37;;;3.50;99.90;;;;;;5057621;28;21007;-80
2021/11/23 04:14:18;;;;;;;17.60;11.60;;;3.60;99.90;;;;;;5058171;28;20448;-79
2021/11/23 04:16:45;;;;;;;16.33;11.00;;;3.60;99.90;;;;;;5058322;28;20481;-80
2021/11/23 04:19:12;;;;;;;17.20;12.67;;;3.60;99.90;;;;;;5058238;28;20564;-80
2021/11/23 04:21:40;;;;;;;15.20;11.03;;;3.60;99.90;;;;;;5048579;28;20524;-80
2021/11/23 04:24:07;;;;;;;15.13;10.93;;;3.70;99.90;;;;;;5038856;28;20532;-79
2021/11/23 04:26:34;;;;;;;15.17;10.33;;;3.70;99.90;;;;;;5038203;28;20503;-80
2021/11/23 04:29:00;;;;;;;16.13;10.50;;;3.80;99.90;;;;;;5038329;28;20451;-80
2021/11/23 04:31:27;;;;;;;17.73;11.67;;;3.80;99.90;;;;;;5038364;28;20445;-80
2021/11/23 04:33:54;;;;;;;18.77;12.37;;;3.80;99.90;;;;;;5041353;28;20446;-80
2021/11/23 04:36:21;;;;;;;17.30;12.53;;;3.80;99.90;;;;;;5048965;28;20544;-80
2021/11/23 04:38:49;;;;;;;17.40;11.43;;;3.90;99.90;;;;;;5052483;28;20491;-79
2021/11/23 04:41:16;;;;;;;16.80;11.60;;;3.90;99.90;;;;;;5057389;28;20459;-80
2021/11/23 04:43:43;;;;;;;17.70;12.23;;;4.00;99.90;;;;;;5056923;28;20458;-80
2021/11/23 04:46:10;;;;;;;19.83;13.20;;;3.90;99.90;;;;;;5057087;28;20940;-80
2021/11/23 04:48:37;;;;;;;15.90;12.07;;;3.90;99.90;;;;;;5058035;28;20440;-80
2021/11/23 04:51:04;;;;;;;18.83;13.13;;;3.90;99.90;;;;;;5057070;28;20451;-80
2021/11/23 04:53:30;;;;;;;18.33;12.60;;;4.00;99.90;;;;;;5052872;28;20954;-80
2021/11/23 04:55:59;;;;;;;15.83;11.20;;;4.00;99.90;;;;;;5046009;28;20472;-80
2021/11/23 04:58:25;;;;;;;18.00;12.67;;;4.00;99.90;;;;;;5057900;28;20458;-80
2021/11/23 05:00:52;;;;;;;22.07;13.00;;;4.10;99.90;;;;;;5056564;28;20866;-81
2021/11/23 05:03:19;;;;;;;16.57;12.00;;;4.00;99.90;;;;;;5057578;28;20948;-80
2021/11/23 05:05:46;;;;;;;16.43;10.83;;;4.10;99.90;;;;;;5057653;28;20551;-80
2021/11/23 05:08:13;;;;;;;20.00;13.30;;;4.10;99.90;;;;;;5057741;28;20448;-81
2021/11/23 05:10:39;;;;;;;19.23;13.23;;;4.10;99.90;;;;;;5048454;28;20452;-78
2021/11/23 05:13:08;;;;;;;20.90;13.70;;;4.20;99.90;;;;;;5041465;28;20452;-78
2021/11/23 05:15:35;;;;;;;21.50;13.93;;;4.10;99.90;;;;;;5040821;28;20444;-78
2021/11/23 05:18:01;;;;;;;16.70;12.50;;;4.20;99.90;;;;;;5058641;28;20536;-78
2021/11/23 05:20:28;;;;;;;3.70;1.90;;;4.20;99.90;;;;;;5055805;28;20859;-77
2021/11/23 05:22:55;;;;;;;13.00;8.70;;;5.30;99.90;;;;;;5050539;28;20532;-78
2021/11/23 05:25:22;;;;;;;17.63;9.50;;;8.00;99.90;;;;;;5052471;28;20485;-78
2021/11/23 05:27:49;;;;;;;11.60;8.87;;;8.40;99.90;;;;;;5050323;28;20965;-78
2021/11/23 05:30:17;;;;;;;11.40;6.67;;;8.80;99.90;;;;;;5051070;28;20436;-77
2021/11/23 05:32:45;;;;;;;16.80;10.77;;;8.90;99.90;;;;;;5056293;28;20461;-80
2021/11/23 05:35:12;;;;;;;13.00;9.83;;;8.40;99.90;;;;;;5062875;28;20448;-80
2021/11/23 05:37:39;;;;;;;14.43;9.97;;;7.90;99.90;;;;;;5062463;28;20465;-80
2021/11/23 05:40:08;;;;;;;17.70;11.97;;;7.40;99.90;;;;;;5061056;28;20501;-79
2021/11/23 05:42:35;;;;;;;16.10;11.90;;;6.90;99.90;;;;;;5059281;28;20442;-78
2021/11/23 05:45:02;;;;;;;13.13;9.87;;;6.50;99.90;;;;;;5038554;28;20450;-79
2021/11/23 05:47:30;;;;;;;16.03;12.80;;;6.20;99.90;;;;;;5036032;28;20522;-79
2021/11/23 05:49:57;;;;;;;16.67;11.80;;;5.90;99.90;;;;;;5034891;28;20446;-80
2021/11/23 05:52:24;;;;;;;17.43;12.67;;;5.80;99.90;;;;;;5033656;28;20534;-79
2021/11/23 05:54:50;;;;;;;14.53;11.53;;;5.60;99.90;;;;;;5035190;28;20450;-79
2021/11/23 05:57:17;;;;;;;17.60;12.30;;;5.50;99.90;;;;;;5034502;28;20865;-79
2021/11/23 05:59:44;;;;;;;15.33;11.07;;;5.40;99.90;;;;;;5039229;28;20483;-79
2021/11/23 06:02:11;;;;;;;19.40;12.20;;;5.30;99.90;;;;;;5053247;28;20532;-80
2021/11/23 06:04:39;;;;;;;16.73;11.43;;;5.20;99.90;;;;;;5054395;28;20488;-79
2021/11/23 06:07:06;;;;;;;18.17;14.20;;;5.20;99.90;;;;;;5054331;28;20488;-79
2021/11/23 06:09:33;;;;;;;20.50;13.63;;;5.00;99.90;;;;;;5053923;28;20444;-79
2021/11/23 06:11:59;;;;;;;20.93;12.20;;;5.10;99.90;;;;;;5052863;28;20549;-79
2021/11/23 06:14:26;;;;;;;18.30;12.53;;;5.10;99.90;;;;;;5053638;28;20437;-79
2021/11/23 06:16:53;;;;;;;19.20;12.43;;;5.20;99.90;;;;;;5039546;28;20474;-79
2021/11/23 06:19:20;;;;;;;20.57;14.10;;;5.10;99.90;;;;;;5034352;28;20534;-78
2021/11/23 06:21:48;;;;;;;23.90;15.50;;;5.00;99.90;;;;;;5031409;28;20443;-78
2021/11/23 06:24:15;;;;;;;19.60;13.37;;;5.00;99.90;;;;;;5034133;28;20445;-79
2021/11/23 06:26:42;;;;;;;24.93;14.17;;;5.00;99.90;;;;;;5033605;28;20983;-79
2021/11/23 06:29:09;;;;;;;17.50;13.17;;;5.10;99.90;;;;;;5035434;28;20452;-79
2021/11/23 06:31:36;;;;;;;20.90;13.97;;;5.10;99.90;;;;;;5033781;28;20497;-79
2021/11/23 06:34:07;;;;;;;20.40;14.30;;;5.10;99.90;;;;;;5034835;28;20452;-79
2021/11/23 06:36:34;;;;;;;23.43;15.60;;;5.10;99.90;;;;;;5035011;28;20466;-79
2021/11/23 06:39:04;;;;;;;21.27;15.00;;;5.00;99.90;;;;;;5055179;28;20474;-78
2021/11/23 06:41:31;;;;;;;21.03;14.60;;;5.00;99.90;;;;;;5035396;28;20561;-79
2021/11/23 06:44:02;;;;;;;23.77;17.13;;;5.00;99.90;;;;;;5036814;28;20444;-79
2021/11/23 06:46:29;;;;;;;28.10;16.67;;;4.90;99.90;;;;;;5021727;28;20497;-79
2021/11/23 06:48:57;;;;;;;26.33;16.67;;;4.80;99.90;;;;;;5024819;28;20854;-81
2021/11/23 06:51:23;;;;;;;26.20;17.40;;;4.70;99.90;;;;;;5026052;28;20952;-79
2021/11/23 06:53:52;;;;;;;25.30;16.37;;;4.70;99.90;;;;;;5021234;28;20542;-80
2021/11/23 06:56:21;;;;;;;26.70;17.47;;;4.60;99.90;;;;;;5039289;28;20480;-79
2021/11/23 06:58:55;;;;;;;30.73;18.43;;;4.70;99.90;;;;;;5034180;28;20458;-78
2021/11/23 07:01:24;;;;;;;25.50;16.73;;;4.70;99.90;;;;;;5036754;28;20579;-78
2021/11/23 07:03:51;;;;;;;29.73;19.57;;;4.70;99.90;;;;;;5036629;28;20837;-78
2021/11/23 07:06:18;;;;;;;25.73;16.30;;;4.60;99.90;;;;;;5034182;28;20468;-80
2021/11/23 07:08:45;;;;;;;27.10;18.97;;;4.60;99.90;;;;;;5033227;28;20533;-79
2021/11/23 07:11:13;;;;;;;26.90;17.80;;;4.50;99.90;;;;;;5040117;28;21026;-78
2021/11/23 07:13:42;;;;;;;29.53;17.10;;;4.50;99.90;;;;;;5055212;28;20459;-79
2021/11/23 07:16:09;;;;;;;24.30;16.73;;;4.60;99.90;;;;;;5052020;28;20495;-78
2021/11/23 07:18:36;;;;;;;23.40;17.70;;;4.60;99.90;;;;;;5046494;28;20462;-79
2021/11/23 07:21:03;;;;;;;36.80;22.20;;;4.60;99.90;;;;;;5032665;28;21032;-79
2021/11/23 07:23:30;;;;;;;34.50;21.30;;;4.50;99.90;;;;;;5034046;28;20544;-78
2021/11/23 07:25:57;;;;;;;32.97;18.50;;;4.50;99.90;;;;;;5037391;28;20474;-80
2021/11/23 07:28:26;;;;;;;31.87;20.13;;;4.50;99.90;;;;;;5049803;28;20859;-78
2021/11/23 07:30:57;;;;;;;33.47;21.60;;;4.50;99.90;;;;;;5035896;28;20459;-79
2021/11/23 07:33:24;;;;;;;29.00;19.70;;;4.50;99.90;;;;;;5046122;28;20493;-79
2021/11/23 07:35:51;;;;;;;42.20;19.90;;;4.50;99.90;;;;;;5035099;28;20469;-80
2021/11/23 07:38:17;;;;;;;31.73;19.93;;;4.50;99.90;;;;;;5034362;28;20441;-79
2021/11/23 07:40:46;;;;;;;32.93;19.40;;;4.50;99.90;;;;;;5034889;28;20490;-81
2021/11/23 07:43:13;;;;;;;29.70;20.00;;;4.60;99.90;;;;;;5035153;28;20760;-78
2021/11/23 07:45:41;;;;;;;36.17;22.90;;;4.60;99.90;;;;;;5032636;28;20489;-79
2021/11/23 07:48:10;;;;;;;36.70;23.63;;;4.60;99.90;;;;;;5033841;28;20867;-79
2021/11/23 07:50:38;;;;;;;35.70;23.70;;;4.50;99.90;;;;;;5035666;28;20451;-79
2021/11/23 07:53:05;;;;;;;36.87;22.73;;;4.50;99.90;;;;;;5033523;28;20460;-79
2021/11/23 07:55:32;;;;;;;34.90;21.53;;;4.50;99.90;;;;;;5034159;28;20849;-80
2021/11/23 07:57:59;;;;;;;40.30;22.13;;;4.50;99.90;;;;;;5033372;28;20458;-80
2021/11/23 08:00:26;;;;;;;32.07;21.63;;;4.60;99.90;;;;;;5032875;28;21072;-79
2021/11/23 08:02:53;;;;;;;32.80;21.67;;;4.60;99.90;;;;;;5033761;28;20452;-79
2021/11/23 08:05:22;;;;;;;31.73;21.90;;;4.60;99.90;;;;;;5033739;28;20487;-79
2021/11/23 08:07:51;;;;;;;31.23;19.63;;;4.70;99.90;;;;;;5033156;28;20452;-80
2021/11/23 08:10:20;;;;;;;35.80;23.37;;;4.70;99.90;;;;;;5025593;28;20449;-79
2021/11/23 08:12:47;;;;;;;34.10;22.10;;;4.70;99.90;;;;;;5031561;28;20491;-81
2021/11/23 08:15:14;;;;;;;30.13;20.70;;;4.80;99.90;;;;;;5033360;28;20449;-80
2021/11/23 08:17:41;;;;;;;33.40;22.07;;;4.80;99.90;;;;;;5031044;28;20478;-80
2021/11/23 08:20:09;;;;;;;43.20;23.50;;;4.80;99.90;;;;;;5034665;28;20523;-80
2021/11/23 08:22:38;;;;;;;33.87;22.50;;;4.80;99.90;;;;;;5031916;28;20453;-80
2021/11/23 08:25:06;;;;;;;34.40;22.50;;;4.80;99.90;;;;;;5036449;28;20529;-79
2021/11/23 08:27:32;;;;;;;39.83;23.37;;;4.80;99.90;;;;;;5034365;28;20470;-80
2021/11/23 08:30:00;;;;;;;33.10;21.17;;;4.80;99.90;;;;;;5032908;28;20452;-80
2021/11/23 08:32:27;;;;;;;35.07;21.77;;;4.80;99.90;;;;;;5033540;28;20451;-81
2021/11/23 08:34:54;;;;;;;29.70;20.43;;;4.80;99.90;;;;;;5036629;28;20461;-79
2021/11/23 08:37:21;;;;;;;33.30;22.30;;;4.90;99.90;;;;;;5034510;28;20473;-80
2021/11/23 08:39:49;;;;;;;36.63;23.80;;;4.90;99.90;;;;;;5051529;28;20445;-81
2021/11/23 08:42:20;;;;;;;32.60;22.97;;;5.00;99.90;;;;;;5064370;28;20505;-80
2021/11/23 08:44:47;;;;;;;39.00;22.27;;;4.90;99.90;;;;;;5034001;28;20521;-80
2021/11/23 08:47:14;;;;;;;45.47;28.60;;;5.00;99.90;;;;;;5023440;28;20493;-78
2021/11/23 08:49:41;;;;;;;32.70;23.03;;;5.00;99.90;;;;;;5028063;28;20472;-79
2021/11/23 08:52:08;;;;;;;36.50;23.20;;;5.10;99.90;;;;;;5023659;28;20442;-79
2021/11/23 08:54:35;;;;;;;39.03;24.60;;;5.10;99.90;;;;;;5023319;28;20462;-80
2021/11/23 08:57:05;;;;;;;32.97;22.80;;;5.20;99.90;;;;;;5017258;28;20481;-77
2021/11/23 08:59:33;;;;;;;30.20;22.93;;;5.10;99.90;;;;;;5024547;28;20451;-78
2021/11/23 09:02:00;;;;;;;33.50;23.10;;;5.20;99.90;;;;;;5021811;28;20494;-79
2021/11/23 09:04:26;;;;;;;35.97;25.90;;;5.20;99.90;;;;;;5031967;28;20468;-78
2021/11/23 09:06:54;;;;;;;40.30;26.00;;;5.20;99.90;;;;;;5031409;28;20560;-77
2021/11/23 09:09:24;;;;;;;38.87;24.43;;;5.10;99.90;;;;;;5031265;28;20460;-80
2021/11/23 09:11:51;;;;;;;34.53;24.40;;;5.20;99.90;;;;;;5022773;28;20571;-77
2021/11/23 09:14:20;;;;;;;34.87;24.00;;;5.20;99.90;;;;;;5028724;28;20467;-79
2021/11/23 09:16:47;;;;;;;34.90;21.67;;;5.30;99.90;;;;;;5033557;28;20493;-78
2021/11/23 09:19:14;;;;;;;33.70;23.10;;;5.40;99.90;;;;;;5028446;28;20463;-78
2021/11/23 09:21:41;;;;;;;33.47;22.80;;;5.50;99.90;;;;;;5027270;28;20499;-77
2021/11/23 09:24:08;;;;;;;42.37;26.73;;;5.60;99.90;;;;;;5029071;28;20497;-77
2021/11/23 09:26:35;;;;;;;36.17;23.43;;;5.40;99.90;;;;;;5025251;28;20496;-78
2021/11/23 09:29:02;;;;;;;37.23;24.60;;;5.50;99.90;;;;;;5025181;28;20841;-78
2021/11/23 09:31:30;;;;;;;32.90;21.20;;;5.50;99.90;;;;;;5027955;28;20571;-78
2021/11/23 09:33:57;;;;;;;34.93;24.90;;;5.50;99.90;;;;;;5029935;28;20444;-78
2021/11/23 09:36:24;;;;;;;28.50;22.00;;;5.60;99.90;;;;;;5037467;28;20486;-77
2021/11/23 09:38:51;;;;;;;36.37;24.90;;;5.50;99.90;;;;;;5043472;28;20454;-77
2021/11/23 09:41:18;;;;;;;33.80;21.10;;;5.60;99.90;;;;;;5032365;28;20581;-78
2021/11/23 09:43:45;;;;;;;31.23;20.70;;;5.60;99.90;;;;;;5030766;28;20942;-78
2021/11/23 09:46:12;;;;;;;39.77;26.30;;;5.60;99.90;;;;;;5031176;28;20466;-77
2021/11/23 09:48:43;;;;;;;34.00;21.83;;;5.60;99.90;;;;;;5030213;28;20884;-78
2021/11/23 09:51:14;;;;;;;35.70;24.50;;;5.60;99.90;;;;;;5035438;28;20447;-77
2021/11/23 09:53:41;;;;;;;34.77;24.57;;;5.60;99.90;;;;;;5039145;28;20538;-78
2021/11/23 09:56:08;;;;;;;40.30;27.00;;;5.70;99.90;;;;;;5030414;28;20473;-78
2021/11/23 09:58:35;;;;;;;32.73;22.60;;;5.70;99.90;;;;;;5030151;28;20451;-78
2021/11/23 10:01:05;;;;;;;32.17;21.73;;;5.70;99.90;;;;;;5030299;28;20495;-79
2021/11/23 10:03:33;;;;;;;29.63;20.17;;;5.80;99.90;;;;;;5030612;28;20555;-80
2021/11/23 10:06:13;;;;;;;26.50;18.50;;;5.90;99.90;;;;;;5030836;28;20560;-79
2021/11/23 10:08:41;;;;;;;25.43;18.77;;;6.00;99.90;;;;;;5030851;28;20450;-78
2021/11/23 10:11:08;;;;;;;28.67;20.53;;;5.90;99.90;;;;;;5028986;28;20456;-79
2021/11/23 10:13:42;;;;;;;26.40;18.93;;;5.90;99.90;;;;;;5030762;28;20951;-78
2021/11/23 10:16:09;;;;;;;26.53;18.80;;;6.10;99.90;;;;;;5027100;28;20483;-79
2021/11/23 10:18:36;;;;;;;33.10;22.27;;;6.20;99.90;;;;;;5018257;28;20559;-78
2021/11/23 10:21:07;;;;;;;24.67;17.50;;;6.00;99.90;;;;;;5022948;28;21065;-79
2021/11/23 10:23:37;;;;;;;24.80;17.70;;;6.10;99.90;;;;;;5031297;28;20456;-80
2021/11/23 10:26:11;;;;;;;28.50;20.27;;;6.20;99.90;;;;;;5027406;28;20998;-79
2021/11/23 10:28:38;;;;;;;25.87;17.40;;;6.10;99.90;;;;;;5024628;28;20906;-80
2021/11/23 10:31:07;;;;;;;31.97;19.43;;;6.20;99.90;;;;;;5022421;28;20957;-80
2021/11/23 10:33:37;;;;;;;27.67;18.00;;;6.20;99.90;;;;;;5011903;28;20852;-79
2021/11/23 10:36:06;;;;;;;34.53;21.70;;;6.30;99.90;;;;;;5035307;28;20553;-81
2021/11/23 10:38:36;;;;;;;30.90;18.37;;;6.20;99.90;;;;;;5028215;28;20473;-79
2021/11/23 10:41:07;;;;;;;40.83;21.33;;;6.30;99.90;;;;;;5032902;28;20566;-80
2021/11/23 10:43:34;;;;;;;29.73;20.40;;;6.40;99.90;;;;;;5036790;28;20459;-80
2021/11/23 10:46:01;;;;;;;27.87;19.87;;;6.30;99.90;;;;;;5050408;28;20543;-80
2021/11/23 10:48:29;;;;;;;30.30;20.80;;;6.50;99.90;;;;;;5033969;28;20543;-78
2021/11/23 10:51:03;;;;;;;27.13;17.90;;;6.70;99.90;;;;;;5034148;28;20466;-78
2021/11/23 10:53:30;;;;;;;26.67;18.80;;;6.70;99.90;;;;;;5010110;28;20467;-79
2021/11/23 10:56:07;;;;;;;24.17;17.53;;;6.60;99.90;;;;;;5031830;28;20575;-79
2021/11/23 10:58:34;;;;;;;9.43;6.00;;;6.80;99.90;;;;;;5029139;28;20451;-76
2021/11/23 11:01:04;;;;;;;23.80;18.00;;;8.80;99.90;;;;;;5024860;28;20477;-78
2021/11/23 11:03:33;;;;;;;18.10;12.70;;;8.60;99.90;;;;;;5027268;28;20461;-79
2021/11/23 11:06:02;;;;;;;16.60;10.57;;;8.90;99.90;;;;;;5028731;28;20476;-77
2021/11/23 11:08:33;;;;;;;19.73;12.10;;;9.60;99.90;;;;;;5034367;28;20501;-76
2021/11/23 11:11:00;;;;;;;20.47;14.73;;;9.80;99.90;;;;;;5029713;28;20453;-77
2021/11/23 11:13:29;;;;;;;21.23;12.80;;;9.00;99.90;;;;;;5029677;28;20548;-76
2021/11/23 11:15:57;;;;;;;24.33;13.30;;;8.90;99.90;;;;;;5029123;28;20481;-77
2021/11/23 11:18:25;;;;;;;24.23;16.17;;;8.70;99.90;;;;;;5029418;28;20826;-76
2021/11/23 11:20:58;;;;;;;19.70;13.13;;;9.10;99.90;;;;;;5026067;28;20831;-76
2021/11/23 11:23:27;;;;;;;19.43;11.30;;;9.50;99.90;;;;;;5012507;28;20472;-75
2021/11/23 11:26:19;;;;;;;19.10;14.03;;;10.00;99.90;;;;;;5025371;28;20846;-78
2021/11/23 11:28:50;;;;;;;19.23;14.50;;;10.00;99.90;;;;;;5034012;28;20844;-78
2021/11/23 11:31:31;;;;;;;24.03;16.30;;;9.70;99.90;;;;;;5033691;28;20833;-82
2021/11/23 11:34:26;;;;;;;24.30;16.90;;;9.30;99.90;;;;;;5046477;28;20997;-79
2021/11/23 11:37:06;;;;;;;24.20;15.87;;;8.60;99.90;;;;;;5043348;28;20482;-79
2021/11/23 11:39:58;;;;;;;23.83;15.87;;;8.50;99.90;;;;;;5037002;28;20448;-79
2021/11/23 11:43:04;;;;;;;28.43;19.20;;;8.30;99.90;;;;;;5035719;28;20541;-79
2021/11/23 11:45:45;;;;;;;33.00;19.40;;;8.10;99.90;;;;;;5025110;28;20460;-80
2021/11/23 11:48:43;;;;;;;32.13;19.73;;;7.80;99.90;;;;;;5025320;28;20452;-80
2021/11/23 11:51:11;;;;;;;36.00;20.87;;;8.00;99.90;;;;;;4934500;29;21202;-78
2021/11/23 11:53:41;;;;;;;36.13;23.57;;;8.00;99.90;;;;;;5019610;28;20464;-78
2021/11/23 11:56:09;;;;;;;35.33;23.73;;;7.70;99.90;;;;;;5047472;28;20465;-78
2021/11/23 11:58:52;;;;;;;41.73;24.43;;;7.70;99.90;;;;;;5033069;28;21159;-78
2021/11/23 12:01:36;;;;;;;37.50;21.27;;;7.50;99.90;;;;;;5032382;28;20497;-78
2021/11/23 12:04:12;;;;;;;39.07;23.47;;;7.60;99.90;;;;;;5026560;28;20457;-79
2021/11/23 12:07:09;;;;;;;48.13;24.37;;;7.60;99.90;;;;;;5034046;28;20478;-78
2021/11/23 12:09:39;;;;;;;38.80;22.80;;;7.60;99.90;;;;;;5030993;28;20445;-78
2021/11/23 12:12:43;;;;;;;35.80;22.03;;;7.60;99.90;;;;;;5036865;28;20443;-79
2021/11/23 12:15:45;;;;;;;40.77;24.90;;;7.30;99.90;;;;;;5035199;28;20439;-79
2021/11/23 12:18:32;;;;;;;49.60;30.57;;;7.40;99.90;;;;;;5014181;28;20463;-79
2021/11/23 12:21:04;;;;;;;40.00;24.90;;;7.20;99.90;;;;;;5035010;28;20454;-79
2021/11/23 12:23:35;;;;;;;56.10;28.70;;;7.20;99.90;;;;;;5035684;28;20466;-79
2021/11/23 12:26:06;;;;;;;42.73;25.17;;;7.40;99.90;;;;;;5018645;28;20457;-79
2021/11/23 12:28:33;;;;;;;45.73;25.40;;;7.50;99.90;;;;;;5039017;28;20448;-80
2021/11/23 12:31:07;;;;;;;45.40;25.27;;;7.70;99.90;;;;;;5033792;28;20448;-79
2021/11/23 12:33:44;;;;;;;45.30;26.10;;;7.70;99.90;;;;;;5031046;28;20467;-81
2021/11/23 12:36:18;;;;;;;43.03;26.10;;;7.70;99.90;;;;;;5021721;28;20471;-80
2021/11/23 12:38:45;;;;;;;37.17;23.57;;;7.70;99.90;;;;;;5034595;28;20446;-79
2021/11/23 12:41:15;;;;;;;51.23;26.13;;;7.60;99.90;;;;;;5033895;28;20452;-79
2021/11/23 12:43:42;;;;;;;44.10;25.97;;;7.70;99.90;;;;;;5033778;28;20543;-80
2021/11/23 12:46:10;;;;;;;47.73;26.57;;;7.60;99.90;;;;;;5042889;28;20469;-79
2021/11/23 12:48:40;;;;;;;50.40;29.10;;;7.70;99.90;;;;;;5056379;28;20546;-79